Terminal Aerodrome Forecast
Issued by NWS Boise, ID

Home | Current Version | Previous Version | Text Only | Print | Product List | Glossary On
Versions: 1 2 3 4 5 6 7 8 9 10 11 12 13 14 15
000
FTUS45 KBOI 212330
TAFBNO
TAF
KBNO 212330Z 2200/2224 30009G16KT P6SM BKN060
     FM220200 27009KT P6SM SCT060
     FM221700 29010G18KT P6SM VCSH SCT050 BKN080=

USA.gov is the U.S. government's official web portal to all federal, state and local government web resources and services.